createdAt,value
2022-11-30T00:01:57.055Z,5.70
2022-11-30T00:04:25.185Z,5.70
2022-11-30T00:06:57.184Z,5.70
2022-11-30T00:09:25.330Z,5.70
2022-11-30T00:11:54.738Z,5.70
2022-11-30T00:14:22.747Z,5.70
2022-11-30T00:16:50.816Z,5.70
2022-11-30T00:19:18.910Z,5.70
2022-11-30T00:21:47.316Z,5.70
2022-11-30T00:24:15.269Z,5.70
2022-11-30T00:26:43.247Z,5.70
2022-11-30T00:29:13.036Z,5.70
2022-11-30T00:31:41.053Z,5.60
2022-11-30T00:34:09.050Z,5.60
2022-11-30T00:36:37.037Z,5.60
2022-11-30T00:39:05.310Z,5.60
2022-11-30T00:41:33.378Z,5.60
2022-11-30T00:44:01.422Z,5.60
2022-11-30T00:46:30.760Z,5.60
2022-11-30T00:48:58.828Z,5.60
2022-11-30T00:51:26.798Z,5.60
2022-11-30T00:53:54.858Z,5.60
2022-11-30T00:56:24.815Z,5.60
2022-11-30T00:58:53.012Z,5.60
2022-11-30T01:01:21.128Z,5.60
2022-11-30T01:03:50.582Z,5.60
2022-11-30T01:06:18.600Z,5.60
2022-11-30T01:08:48.087Z,5.60
2022-11-30T01:11:19.362Z,5.60
2022-11-30T01:13:47.367Z,5.60
2022-11-30T01:16:19.370Z,5.60
2022-11-30T01:18:48.086Z,5.60
2022-11-30T01:21:19.210Z,5.60
2022-11-30T01:23:47.687Z,5.60
2022-11-30T01:26:16.587Z,5.50
2022-11-30T01:28:45.038Z,5.50
2022-11-30T01:31:14.979Z,5.50
2022-11-30T01:33:43.417Z,5.50
2022-11-30T01:36:13.552Z,5.50
2022-11-30T01:38:44.517Z,5.50
2022-11-30T01:41:14.643Z,5.50
2022-11-30T01:43:44.773Z,5.50
2022-11-30T01:46:23.185Z,5.50
2022-11-30T01:48:58.043Z,5.50
2022-11-30T01:51:28.017Z,5.50
2022-11-30T01:53:57.429Z,5.40
2022-11-30T01:56:25.440Z,5.40
2022-11-30T01:58:53.592Z,5.40
2022-11-30T02:01:21.614Z,5.40
2022-11-30T02:03:55.951Z,5.40
2022-11-30T02:06:25.769Z,5.40
2022-11-30T02:08:55.154Z,5.40
2022-11-30T02:11:28.008Z,5.40
2022-11-30T02:14:19.382Z,5.40
2022-11-30T02:16:56.704Z,5.40
2022-11-30T02:19:59.222Z,5.30
2022-11-30T02:22:43.675Z,5.30
2022-11-30T02:25:24.164Z,5.30
2022-11-30T02:28:17.401Z,5.30
2022-11-30T02:30:50.905Z,5.30
2022-11-30T02:33:23.341Z,5.30
2022-11-30T02:35:55.335Z,5.30
2022-11-30T02:38:25.572Z,5.20
2022-11-30T02:40:53.808Z,5.20
2022-11-30T02:43:24.505Z,5.20
2022-11-30T02:45:59.843Z,5.20
2022-11-30T02:48:33.536Z,5.20
2022-11-30T02:51:04.881Z,5.10
2022-11-30T02:53:32.963Z,5.20
2022-11-30T02:56:01.038Z,5.20
2022-11-30T02:58:29.027Z,5.20
2022-11-30T03:00:58.376Z,5.20
2022-11-30T03:03:26.453Z,5.10
2022-11-30T03:05:54.510Z,5.10
2022-11-30T03:08:22.548Z,5.10
2022-11-30T03:10:50.600Z,5.10
2022-11-30T03:13:18.594Z,5.10
2022-11-30T03:15:46.602Z,5.10
2022-11-30T03:18:15.948Z,5.10
2022-11-30T03:20:44.307Z,5.10
2022-11-30T03:23:12.289Z,5.10
2022-11-30T03:25:40.338Z,5.10
2022-11-30T03:28:08.318Z,5.10
2022-11-30T03:30:36.284Z,5.10
2022-11-30T03:33:04.292Z,5.10
2022-11-30T03:35:33.626Z,5.00
2022-11-30T03:38:01.583Z,5.00
2022-11-30T03:40:29.548Z,5.00
2022-11-30T03:42:57.558Z,5.00
2022-11-30T03:45:25.517Z,5.00
2022-11-30T03:47:53.470Z,5.00
2022-11-30T03:50:21.588Z,5.00
2022-11-30T03:52:51.203Z,4.90
2022-11-30T03:55:19.569Z,4.90
2022-11-30T03:57:47.691Z,4.90
2022-11-30T04:00:16.849Z,4.90
2022-11-30T04:02:45.252Z,4.90
2022-11-30T04:05:13.507Z,4.90
2022-11-30T04:07:41.577Z,4.80
2022-11-30T04:10:12.424Z,4.80
2022-11-30T04:12:40.406Z,4.80
2022-11-30T04:15:09.698Z,4.80
2022-11-30T04:17:37.726Z,4.80
2022-11-30T04:20:07.007Z,4.80
2022-11-30T04:22:34.993Z,4.80
2022-11-30T04:25:02.935Z,4.80
2022-11-30T04:27:32.284Z,4.80
2022-11-30T04:30:00.300Z,4.80
2022-11-30T04:32:28.298Z,4.70
2022-11-30T04:34:56.266Z,4.70
2022-11-30T04:37:24.279Z,4.70
2022-11-30T04:39:52.220Z,4.70
2022-11-30T04:42:20.228Z,4.70
2022-11-30T04:44:49.613Z,4.70
2022-11-30T04:47:17.648Z,4.70
2022-11-30T04:49:45.637Z,4.70
2022-11-30T04:52:13.770Z,4.70
2022-11-30T04:54:41.749Z,4.70
2022-11-30T04:57:09.699Z,4.60
2022-11-30T04:59:37.654Z,4.60
2022-11-30T05:02:07.304Z,4.60
2022-11-30T05:04:35.434Z,4.60
2022-11-30T05:07:03.432Z,4.60
2022-11-30T05:09:31.822Z,4.60
2022-11-30T05:11:59.863Z,4.60
2022-11-30T05:14:27.860Z,4.60
2022-11-30T05:16:55.803Z,4.60
2022-11-30T05:19:25.111Z,4.60
2022-11-30T05:21:53.093Z,4.60
2022-11-30T05:24:21.023Z,4.50
2022-11-30T05:26:49.145Z,4.50
2022-11-30T05:29:17.128Z,4.50
2022-11-30T05:31:45.181Z,4.50
2022-11-30T05:34:13.209Z,4.50
2022-11-30T05:36:42.575Z,4.50
2022-11-30T05:39:10.867Z,4.50
2022-11-30T05:41:38.928Z,4.50
2022-11-30T05:44:07.396Z,4.50
2022-11-30T05:46:39.664Z,4.50
2022-11-30T05:49:09.178Z,4.50
2022-11-30T05:51:37.165Z,4.50
2022-11-30T05:54:06.647Z,4.50
2022-11-30T05:56:34.712Z,4.50
2022-11-30T05:59:02.698Z,4.40
2022-11-30T06:01:31.026Z,4.40
2022-11-30T06:03:59.138Z,4.40
2022-11-30T06:06:27.111Z,4.40
2022-11-30T06:08:55.629Z,4.40
2022-11-30T06:11:25.364Z,4.40
2022-11-30T06:13:53.332Z,4.30
2022-11-30T06:16:21.396Z,4.30
2022-11-30T06:18:49.458Z,4.30
2022-11-30T06:21:23.933Z,4.30
2022-11-30T06:23:52.640Z,4.30
2022-11-30T06:26:21.177Z,4.30
2022-11-30T06:28:50.595Z,4.30
2022-11-30T06:31:18.710Z,4.20
2022-11-30T06:33:46.840Z,4.20
2022-11-30T06:36:14.919Z,4.20
2022-11-30T06:38:42.974Z,4.20
2022-11-30T06:41:12.476Z,4.20
2022-11-30T06:43:41.430Z,4.20
2022-11-30T06:46:11.365Z,4.20
2022-11-30T06:48:39.785Z,4.20
2022-11-30T06:51:08.928Z,4.10
2022-11-30T06:53:37.601Z,4.10
2022-11-30T06:56:10.482Z,4.10
2022-11-30T06:58:39.073Z,4.10
2022-11-30T07:01:08.187Z,4.10
2022-11-30T07:03:37.854Z,4.10
2022-11-30T07:06:08.676Z,4.10
2022-11-30T07:08:36.970Z,4.00
2022-11-30T07:11:05.570Z,4.10
2022-11-30T07:13:33.905Z,4.10
2022-11-30T07:16:05.291Z,4.10
2022-11-30T07:18:33.487Z,4.10
2022-11-30T07:21:03.756Z,4.10
2022-11-30T07:23:55.987Z,4.10
2022-11-30T07:26:25.781Z,4.10
2022-11-30T07:28:58.177Z,4.10
2022-11-30T07:31:28.230Z,4.10
2022-11-30T07:33:57.679Z,4.10
2022-11-30T07:36:29.638Z,4.10
2022-11-30T07:38:57.695Z,4.20
2022-11-30T07:41:25.869Z,4.10
2022-11-30T07:43:53.938Z,4.10
2022-11-30T07:46:22.198Z,4.20
2022-11-30T07:48:50.451Z,4.20
2022-11-30T07:51:20.647Z,4.20
2022-11-30T07:53:50.459Z,4.20
2022-11-30T07:56:20.284Z,4.30
2022-11-30T07:58:49.473Z,4.30
2022-11-30T08:01:19.279Z,4.40
2022-11-30T08:03:47.520Z,4.40
2022-11-30T08:06:17.172Z,4.40
2022-11-30T08:08:46.187Z,4.40
2022-11-30T08:11:17.648Z,4.40
2022-11-30T08:13:46.093Z,4.40
2022-11-30T08:16:16.253Z,4.40
2022-11-30T08:18:44.979Z,4.50
2022-11-30T08:21:15.907Z,4.50
2022-11-30T08:23:45.729Z,4.50
2022-11-30T08:26:17.021Z,4.50
2022-11-30T08:28:46.402Z,4.50
2022-11-30T08:31:16.332Z,4.50
2022-11-30T08:33:44.707Z,4.50
2022-11-30T08:36:15.214Z,4.50
2022-11-30T08:38:44.744Z,4.50
2022-11-30T08:41:15.511Z,4.50
2022-11-30T08:43:44.896Z,4.50
2022-11-30T08:46:50.719Z,4.50
2022-11-30T08:49:20.472Z,4.60
2022-11-30T08:54:39.079Z,4.60
2022-11-30T08:57:07.108Z,4.50
2022-11-30T08:59:36.595Z,4.60
2022-11-30T09:02:05.859Z,4.60
2022-11-30T09:04:34.086Z,4.70
2022-11-30T09:07:02.313Z,4.70
2022-11-30T09:09:30.401Z,4.70
2022-11-30T09:11:58.549Z,4.60
2022-11-30T09:14:26.576Z,4.60
2022-11-30T09:16:56.530Z,4.60
2022-11-30T09:19:24.581Z,4.60
2022-11-30T09:21:53.102Z,4.60
2022-11-30T09:24:21.455Z,4.60
2022-11-30T09:26:49.717Z,4.50
2022-11-30T09:29:17.822Z,4.50
2022-11-30T09:31:45.892Z,4.40
2022-11-30T09:34:15.485Z,4.40
2022-11-30T09:36:43.976Z,4.40
2022-11-30T09:39:12.922Z,4.40
2022-11-30T09:42:15.786Z,4.40
2022-11-30T09:44:51.743Z,4.40
2022-11-30T09:47:36.644Z,4.40
2022-11-30T09:50:13.569Z,4.40
2022-11-30T09:52:46.041Z,4.30
2022-11-30T09:55:18.806Z,4.30
2022-11-30T09:57:48.518Z,4.30
2022-11-30T10:00:19.308Z,4.30
2022-11-30T10:02:47.888Z,4.20
2022-11-30T10:05:21.046Z,4.20
2022-11-30T10:08:21.404Z,4.20
2022-11-30T10:10:58.821Z,4.20
2022-11-30T10:13:41.992Z,4.20
2022-11-30T10:16:22.871Z,4.20
2022-11-30T10:19:00.312Z,4.10
2022-11-30T10:21:45.799Z,4.10
2022-11-30T10:24:36.599Z,4.00
2022-11-30T10:27:14.150Z,4.00
2022-11-30T10:29:44.415Z,4.00
2022-11-30T10:32:19.744Z,4.00
2022-11-30T10:34:50.407Z,4.00
2022-11-30T10:37:23.285Z,3.90
2022-11-30T10:40:01.511Z,3.90
2022-11-30T10:42:35.983Z,3.90
2022-11-30T10:45:09.626Z,3.90
2022-11-30T10:47:44.493Z,4.00
2022-11-30T10:50:17.959Z,4.00
2022-11-30T10:52:51.852Z,4.00
2022-11-30T10:55:23.719Z,4.00
2022-11-30T10:57:57.220Z,4.00
2022-11-30T11:00:25.548Z,3.90
2022-11-30T11:02:53.763Z,4.00
2022-11-30T11:05:24.094Z,4.00
2022-11-30T11:08:07.199Z,4.00
2022-11-30T11:10:37.604Z,4.10
2022-11-30T11:13:06.743Z,4.10
2022-11-30T11:15:35.930Z,4.10
2022-11-30T11:18:28.972Z,4.00
2022-11-30T11:21:06.721Z,4.00
2022-11-30T11:23:38.833Z,4.00
2022-11-30T11:26:07.651Z,4.00
2022-11-30T11:28:37.052Z,3.90
2022-11-30T11:31:18.229Z,3.90
2022-11-30T11:33:53.354Z,4.00
2022-11-30T11:36:28.328Z,4.00
2022-11-30T11:38:58.611Z,3.90
2022-11-30T11:41:30.032Z,4.00
2022-11-30T11:44:02.556Z,3.90
2022-11-30T11:46:32.434Z,3.90
2022-11-30T11:49:03.877Z,3.90
2022-11-30T11:51:34.391Z,3.90
2022-11-30T11:54:13.874Z,3.90
2022-11-30T11:56:42.408Z,3.90
2022-11-30T11:59:18.759Z,3.90
2022-11-30T12:01:56.511Z,4.00
2022-11-30T12:04:42.810Z,3.90
2022-11-30T12:07:19.358Z,4.00
2022-11-30T12:10:03.014Z,4.00
2022-11-30T12:12:31.187Z,4.00
2022-11-30T12:14:59.500Z,4.00
2022-11-30T12:17:50.651Z,4.00
2022-11-30T12:20:24.907Z,4.00
2022-11-30T12:23:24.193Z,4.00
2022-11-30T12:26:06.547Z,4.10
2022-11-30T12:28:43.171Z,4.10
2022-11-30T12:31:15.330Z,4.10
2022-11-30T12:34:06.038Z,4.10
2022-11-30T12:36:47.107Z,4.10
2022-11-30T12:39:26.449Z,4.10
2022-11-30T12:42:01.174Z,4.10
2022-11-30T12:44:51.428Z,4.10
2022-11-30T12:47:31.421Z,4.10
2022-11-30T12:50:19.986Z,4.20
2022-11-30T12:52:55.723Z,4.20
2022-11-30T12:55:34.259Z,4.20
2022-11-30T12:58:12.492Z,4.10
2022-11-30T13:00:53.163Z,4.10
2022-11-30T13:03:51.783Z,4.20
2022-11-30T13:06:24.417Z,4.20
2022-11-30T13:09:02.458Z,4.20
2022-11-30T13:11:36.081Z,4.20
2022-11-30T13:14:11.042Z,4.30
2022-11-30T13:16:40.513Z,4.30
2022-11-30T13:19:28.345Z,4.20
2022-11-30T13:22:03.807Z,4.20
2022-11-30T13:24:38.864Z,4.20
2022-11-30T13:27:14.999Z,4.20
2022-11-30T13:30:21.192Z,4.20
2022-11-30T13:32:57.851Z,4.10
2022-11-30T13:35:42.623Z,4.10
2022-11-30T13:38:37.009Z,4.10
2022-11-30T13:41:08.333Z,4.10
2022-11-30T13:43:40.673Z,4.20
2022-11-30T13:46:21.917Z,4.10
2022-11-30T13:48:50.352Z,4.10
2022-11-30T13:51:35.285Z,4.10
2022-11-30T13:54:36.417Z,4.10
2022-11-30T13:57:04.965Z,4.10
2022-11-30T13:59:40.764Z,4.10
2022-11-30T14:03:00.486Z,4.10
2022-11-30T14:05:39.673Z,4.10
2022-11-30T14:08:40.607Z,4.00
2022-11-30T14:11:37.813Z,4.00
2022-11-30T14:14:47.041Z,4.00
2022-11-30T14:17:25.257Z,3.90
2022-11-30T14:19:56.360Z,3.90
2022-11-30T14:22:27.498Z,3.90
2022-11-30T14:24:56.811Z,3.90
2022-11-30T14:27:27.207Z,3.90
2022-11-30T14:30:00.336Z,3.90
2022-11-30T14:32:36.395Z,3.90
2022-11-30T14:35:10.739Z,3.90
2022-11-30T14:37:44.996Z,3.90
2022-11-30T14:40:19.385Z,3.80
2022-11-30T14:42:50.407Z,3.80
2022-11-30T14:45:23.702Z,3.90
2022-11-30T14:47:54.171Z,3.80
2022-11-30T14:50:27.571Z,3.80
2022-11-30T14:53:11.805Z,3.80
2022-11-30T14:55:45.115Z,3.80
2022-11-30T14:58:22.463Z,3.80
2022-11-30T15:00:51.864Z,3.80
2022-11-30T15:03:24.869Z,3.80
2022-11-30T15:05:54.770Z,3.80
2022-11-30T15:08:24.963Z,3.80
2022-11-30T15:10:53.175Z,3.80
2022-11-30T15:13:21.690Z,3.80
2022-11-30T15:15:54.615Z,3.90
2022-11-30T15:18:24.071Z,3.90
2022-11-30T15:20:56.928Z,3.90
2022-11-30T15:23:26.540Z,3.80
2022-11-30T15:25:57.929Z,3.80
2022-11-30T15:28:30.801Z,3.80
2022-11-30T15:31:02.344Z,3.80
2022-11-30T15:33:35.319Z,3.80
2022-11-30T15:36:23.030Z,3.70
2022-11-30T15:38:54.143Z,3.70
2022-11-30T15:41:24.513Z,3.70
2022-11-30T15:43:54.570Z,3.60
2022-11-30T15:46:31.750Z,3.60
2022-11-30T15:49:17.077Z,3.60
2022-11-30T15:51:47.330Z,3.60
2022-11-30T15:54:16.782Z,3.60
2022-11-30T15:56:56.664Z,3.60
2022-11-30T15:59:27.384Z,3.60
2022-11-30T16:02:04.892Z,3.60
2022-11-30T16:05:13.828Z,3.70
2022-11-30T16:07:50.820Z,3.70
2022-11-30T16:10:22.966Z,3.70
2022-11-30T16:12:52.541Z,3.70
2022-11-30T16:15:23.604Z,3.70
2022-11-30T16:17:52.366Z,3.70
2022-11-30T16:20:20.920Z,3.70
2022-11-30T16:22:49.576Z,3.70
2022-11-30T16:25:21.920Z,3.70
2022-11-30T16:27:50.521Z,3.70
2022-11-30T16:30:20.534Z,3.60
2022-11-30T16:32:49.150Z,3.60
2022-11-30T16:35:21.797Z,3.60
2022-11-30T16:37:49.910Z,3.60
2022-11-30T16:40:18.471Z,3.60
2022-11-30T16:42:50.006Z,3.60
2022-11-30T16:45:20.683Z,3.50
2022-11-30T16:47:48.910Z,3.50
2022-11-30T16:50:17.086Z,3.50
2022-11-30T16:52:45.406Z,3.60
2022-11-30T16:55:15.271Z,3.60
2022-11-30T16:57:43.431Z,3.60
2022-11-30T17:00:16.660Z,3.60
2022-11-30T17:02:50.173Z,3.60
2022-11-30T17:05:18.808Z,3.60
2022-11-30T17:07:46.936Z,3.60
2022-11-30T17:10:15.078Z,3.70
2022-11-30T17:12:43.138Z,3.70
2022-11-30T17:15:17.004Z,3.70
2022-11-30T17:17:45.216Z,3.70
2022-11-30T17:20:15.003Z,3.60
2022-11-30T17:22:43.985Z,3.60
2022-11-30T17:25:19.472Z,3.60
2022-11-30T17:27:48.197Z,3.60
2022-11-30T17:30:19.520Z,3.60
2022-11-30T17:32:47.781Z,3.50
2022-11-30T17:35:16.005Z,3.50
2022-11-30T17:37:44.095Z,3.50
2022-11-30T17:40:16.110Z,3.50
2022-11-30T17:42:44.719Z,3.50
2022-11-30T17:45:12.829Z,3.50
2022-11-30T17:47:42.288Z,3.50
2022-11-30T17:50:10.953Z,3.50
2022-11-30T17:52:38.939Z,3.50
2022-11-30T17:55:07.845Z,3.50
2022-11-30T17:57:38.332Z,3.50
2022-11-30T18:00:09.618Z,3.40
2022-11-30T18:02:37.721Z,3.50
2022-11-30T18:05:08.509Z,3.50
2022-11-30T18:07:36.596Z,3.50
2022-11-30T18:10:04.900Z,3.50
2022-11-30T18:12:32.925Z,3.50
2022-11-30T18:15:01.010Z,3.50
2022-11-30T18:17:29.013Z,3.50
2022-11-30T18:19:57.038Z,3.50
2022-11-30T18:22:26.506Z,3.50
2022-11-30T18:24:54.543Z,3.40
2022-11-30T18:27:22.592Z,3.40
2022-11-30T18:29:50.615Z,3.40
2022-11-30T18:32:18.688Z,3.40
2022-11-30T18:34:49.287Z,3.40
2022-11-30T18:37:17.782Z,3.30
2022-11-30T18:39:47.172Z,3.30
2022-11-30T18:42:15.207Z,3.30
2022-11-30T18:44:43.227Z,3.30
2022-11-30T18:47:11.328Z,3.30
2022-11-30T18:49:39.410Z,3.30
2022-11-30T18:52:07.463Z,3.30
2022-11-30T18:54:36.269Z,3.30
2022-11-30T18:57:05.702Z,3.20
2022-11-30T18:59:33.730Z,3.20
2022-11-30T19:02:01.906Z,3.20
2022-11-30T19:04:30.058Z,3.20
2022-11-30T19:06:58.094Z,3.30
2022-11-30T19:09:26.151Z,3.40
2022-11-30T19:11:54.211Z,3.40
2022-11-30T19:14:23.620Z,3.40
2022-11-30T19:16:51.781Z,3.40
2022-11-30T19:19:19.825Z,3.40
2022-11-30T19:21:48.073Z,3.30
2022-11-30T19:24:16.554Z,3.30
2022-11-30T19:26:44.657Z,3.30
2022-11-30T19:29:13.219Z,3.30
2022-11-30T19:31:42.665Z,3.30
2022-11-30T19:34:13.066Z,3.30
2022-11-30T19:36:42.046Z,3.20
2022-11-30T19:39:11.370Z,3.30
2022-11-30T19:41:39.599Z,3.30
2022-11-30T19:44:07.639Z,3.30
2022-11-30T19:46:35.823Z,3.30
2022-11-30T19:49:05.364Z,3.30
2022-11-30T19:51:33.519Z,3.30
2022-11-30T19:54:01.833Z,3.30
2022-11-30T19:56:31.691Z,3.30
2022-11-30T19:59:05.324Z,3.30
2022-11-30T20:01:34.791Z,3.30
2022-11-30T20:04:05.370Z,3.20
2022-11-30T20:06:35.755Z,3.20
2022-11-30T20:09:04.312Z,3.20
2022-11-30T20:11:32.800Z,3.20
2022-11-30T20:14:01.146Z,3.20
2022-11-30T20:16:29.991Z,3.20
2022-11-30T20:19:00.746Z,3.20
2022-11-30T20:21:31.675Z,3.30
2022-11-30T20:24:02.130Z,3.20
2022-11-30T20:26:32.322Z,3.20
2022-11-30T20:29:02.369Z,3.20
2022-11-30T20:31:35.314Z,3.20
2022-11-30T20:34:03.544Z,3.20
2022-11-30T20:36:32.952Z,3.20
2022-11-30T20:39:02.858Z,3.20
2022-11-30T20:41:31.089Z,3.20
2022-11-30T20:43:59.206Z,3.30
2022-11-30T20:46:28.877Z,3.30
2022-11-30T20:48:57.534Z,3.30
2022-11-30T20:51:32.167Z,3.30
2022-11-30T20:54:05.589Z,3.30
2022-11-30T20:56:35.286Z,3.20
2022-11-30T20:59:05.881Z,3.30
2022-11-30T21:01:34.694Z,3.20
2022-11-30T21:04:02.786Z,3.20
2022-11-30T21:06:31.535Z,3.30
2022-11-30T21:09:00.351Z,3.30
2022-11-30T21:11:30.312Z,3.30
2022-11-30T21:13:59.336Z,3.30
2022-11-30T21:16:29.521Z,3.30
2022-11-30T21:18:59.556Z,3.20
2022-11-30T21:21:30.566Z,3.20
2022-11-30T21:24:00.260Z,3.20
2022-11-30T21:26:31.648Z,3.10
2022-11-30T21:29:03.071Z,3.20
2022-11-30T21:31:31.919Z,3.20
2022-11-30T21:34:00.698Z,3.20
2022-11-30T21:36:29.225Z,3.20
2022-11-30T21:39:04.961Z,3.20
2022-11-30T21:41:36.130Z,3.20
2022-11-30T21:44:04.581Z,3.20
2022-11-30T21:46:32.897Z,3.20
2022-11-30T21:49:01.273Z,3.20
2022-11-30T21:51:31.583Z,3.20
2022-11-30T21:54:01.782Z,3.20
2022-11-30T21:56:32.550Z,3.20
2022-11-30T21:59:04.580Z,3.20
2022-11-30T22:01:34.502Z,3.20
2022-11-30T22:04:04.177Z,3.20
2022-11-30T22:06:33.423Z,3.20
2022-11-30T22:09:07.644Z,3.10
2022-11-30T22:11:37.220Z,3.10
2022-11-30T22:14:07.353Z,3.20
2022-11-30T22:16:36.594Z,3.20
2022-11-30T22:19:07.256Z,3.20
2022-11-30T22:21:36.109Z,3.20
2022-11-30T22:24:06.509Z,3.20
2022-11-30T22:26:35.859Z,3.10
2022-11-30T22:29:07.963Z,3.10
2022-11-30T22:31:38.577Z,3.10
2022-11-30T22:34:07.320Z,3.00
2022-11-30T22:36:41.330Z,3.10
2022-11-30T22:39:12.839Z,3.00
2022-11-30T22:41:41.864Z,3.00
2022-11-30T22:44:12.963Z,3.00
2022-11-30T22:46:41.654Z,3.00
2022-11-30T22:49:19.969Z,3.00
2022-11-30T22:51:49.448Z,3.00
2022-11-30T22:54:18.003Z,3.00
2022-11-30T22:56:46.460Z,3.00
2022-11-30T22:59:17.079Z,3.00
2022-11-30T23:01:47.038Z,3.00
2022-11-30T23:04:17.064Z,3.00
2022-11-30T23:06:48.169Z,3.00
2022-11-30T23:09:17.835Z,3.00
2022-11-30T23:11:46.323Z,3.00
2022-11-30T23:14:16.538Z,3.00
2022-11-30T23:16:45.991Z,3.00
2022-11-30T23:19:14.800Z,3.00
2022-11-30T23:21:45.420Z,3.00
2022-11-30T23:24:17.520Z,3.00
2022-11-30T23:26:46.061Z,3.00
2022-11-30T23:29:17.837Z,3.00
2022-11-30T23:31:46.908Z,3.00
2022-11-30T23:34:17.678Z,3.00
2022-11-30T23:36:46.180Z,3.00
2022-11-30T23:39:17.681Z,2.90
2022-11-30T23:41:46.012Z,3.00
2022-11-30T23:44:15.606Z,3.00
2022-11-30T23:46:43.811Z,3.00
2022-11-30T23:49:14.541Z,3.00
2022-11-30T23:51:42.926Z,3.00
2022-11-30T23:54:10.968Z,3.00
2022-11-30T23:56:39.074Z,3.00
2022-11-30T23:59:07.071Z,3.00
